Time;durP1;ratioP1;P1;durP2;ratioP2;P2;SDS_P1;SDS_P2;PMS_P1;PMS_P2;Temp;Humidity;BMP_temperature;BMP_pressure;BME280_temperature;BME280_humidity;BME280_pressure;Samples;Min_cycle;Max_cycle;Signal;HPM_P1;HPM_P2
2023/04/23 00:00:03;;;;;;;6.30;3.50;;;21.30;51.90;;;;;;5025459;28;20525;-47
2023/04/23 00:02:32;;;;;;;4.10;3.70;;;21.40;52.00;;;;;;5022412;28;20446;-48
2023/04/23 00:05:04;;;;;;;3.40;3.10;;;21.40;52.20;;;;;;5023165;28;20812;-48
2023/04/23 00:07:34;;;;;;;3.83;3.53;;;21.40;52.30;;;;;;5026907;28;20487;-51
2023/04/23 00:10:03;;;;;;;3.83;3.17;;;21.20;51.70;;;;;;5017826;28;20521;-50
2023/04/23 00:12:29;;;;;;;3.20;2.63;;;21.00;51.00;;;;;;5026313;28;20482;-49
2023/04/23 00:14:55;;;;;;;2.73;2.53;;;20.50;49.80;;;;;;5025015;28;20488;-52
2023/04/23 00:17:20;;;;;;;3.77;2.80;;;20.40;50.50;;;;;;5024114;28;20436;-47
2023/04/23 00:19:46;;;;;;;3.47;3.00;;;20.30;50.20;;;;;;5026805;28;20276;-50
2023/04/23 00:22:15;;;;;;;3.93;2.60;;;19.90;49.90;;;;;;5024656;28;20243;-50
2023/04/23 00:24:42;;;;;;;3.13;2.50;;;19.80;50.40;;;;;;5022548;28;20193;-50
2023/04/23 00:27:07;;;;;;;4.00;2.50;;;19.80;50.30;;;;;;5024321;28;20488;-51
2023/04/23 00:29:33;;;;;;;2.63;2.40;;;19.60;50.40;;;;;;5022934;28;20440;-46
2023/04/23 00:31:59;;;;;;;3.73;2.47;;;19.30;51.30;;;;;;5020182;28;20224;-51
2023/04/23 00:34:25;;;;;;;4.07;2.83;;;19.20;51.70;;;;;;5026367;28;20245;-46
2023/04/23 00:36:51;;;;;;;2.80;2.47;;;19.20;51.60;;;;;;5026870;28;20287;-46
2023/04/23 00:39:16;;;;;;;3.30;2.20;;;19.30;51.70;;;;;;5021620;28;20448;-53
2023/04/23 00:41:42;;;;;;;2.43;2.10;;;19.30;51.40;;;;;;5020600;28;20224;-49
2023/04/23 00:44:07;;;;;;;3.80;2.70;;;19.50;51.70;;;;;;5019087;28;20193;-52
2023/04/23 00:46:34;;;;;;;2.37;2.17;;;19.50;51.20;;;;;;5018688;28;20209;-51
2023/04/23 00:49:00;;;;;;;3.90;2.63;;;19.50;51.40;;;;;;5028261;28;20198;-47
2023/04/23 00:51:27;;;;;;;5.30;2.20;;;19.40;51.50;;;;;;5020758;28;20463;-51
2023/04/23 00:53:54;;;;;;;4.00;2.40;;;19.40;51.70;;;;;;5030672;28;20787;-46
2023/04/23 00:56:20;;;;;;;2.43;2.23;;;19.60;51.50;;;;;;5031008;28;20432;-54
2023/04/23 00:58:46;;;;;;;5.60;2.83;;;19.70;51.20;;;;;;5030146;28;20919;-53
2023/04/23 01:01:12;;;;;;;3.17;2.90;;;19.60;51.40;;;;;;5018178;28;20416;-48
2023/04/23 01:03:41;;;;;;;2.50;2.30;;;19.40;51.70;;;;;;5020743;28;20593;-52
2023/04/23 01:06:06;;;;;;;2.73;2.53;;;19.40;52.30;;;;;;5029840;28;20924;-54
2023/04/23 01:08:34;;;;;;;2.73;2.13;;;19.40;52.90;;;;;;5034127;28;20479;-53
2023/04/23 01:11:00;;;;;;;2.37;2.17;;;19.40;53.80;;;;;;5029621;28;20571;-47
2023/04/23 01:13:28;;;;;;;4.47;2.50;;;19.40;54.00;;;;;;5033503;28;20444;-48
2023/04/23 01:15:54;;;;;;;2.37;2.10;;;19.40;54.10;;;;;;5032733;28;20543;-49
2023/04/23 01:18:21;;;;;;;2.93;2.50;;;19.40;54.40;;;;;;5029302;28;20531;-48
2023/04/23 01:20:48;;;;;;;4.87;2.50;;;19.30;54.70;;;;;;5015134;28;20423;-50
2023/04/23 01:23:14;;;;;;;4.27;2.20;;;19.30;55.20;;;;;;5030356;28;20447;-48
2023/04/23 01:25:40;;;;;;;2.10;2.00;;;19.20;55.50;;;;;;5030056;28;20444;-48
2023/04/23 01:28:06;;;;;;;2.57;2.37;;;19.20;56.00;;;;;;5029462;28;20857;-48
2023/04/23 01:30:32;;;;;;;4.40;3.13;;;19.30;56.20;;;;;;5025821;28;20707;-52
2023/04/23 01:32:58;;;;;;;4.00;2.33;;;19.30;56.60;;;;;;5028180;28;20202;-48
2023/04/23 01:35:24;;;;;;;3.20;2.13;;;19.20;56.60;;;;;;5029862;28;20480;-47
2023/04/23 01:37:51;;;;;;;2.93;2.20;;;19.20;56.70;;;;;;5030022;28;20522;-52
2023/04/23 01:40:18;;;;;;;1.90;1.80;;;19.20;56.80;;;;;;5027723;28;21350;-51
2023/04/23 01:42:44;;;;;;;2.10;2.00;;;19.40;56.60;;;;;;5027958;28;20448;-52
2023/04/23 01:45:10;;;;;;;4.30;2.57;;;19.40;56.70;;;;;;5027823;28;20432;-47
2023/04/23 01:47:36;;;;;;;2.77;2.57;;;19.40;56.90;;;;;;5027023;28;20279;-50
2023/04/23 01:50:03;;;;;;;2.43;2.23;;;19.40;56.70;;;;;;5027521;28;20490;-48
2023/04/23 01:52:29;;;;;;;2.87;2.47;;;19.60;56.90;;;;;;5021703;28;20201;-52
2023/04/23 01:54:55;;;;;;;2.53;2.33;;;19.60;56.80;;;;;;5016466;28;20507;-48
2023/04/23 01:57:25;;;;;;;2.50;2.30;;;19.70;56.60;;;;;;5022080;28;20201;-51
2023/04/23 01:59:51;;;;;;;3.50;2.60;;;19.80;56.60;;;;;;5022658;28;20193;-50
2023/04/23 02:02:16;;;;;;;2.47;2.27;;;19.80;56.50;;;;;;5025666;28;20448;-50
2023/04/23 02:04:44;;;;;;;6.47;2.50;;;19.90;56.30;;;;;;5023983;28;20959;-48
2023/04/23 02:07:09;;;;;;;4.20;2.60;;;20.00;56.30;;;;;;5027663;28;20630;-51
2023/04/23 02:09:36;;;;;;;2.13;1.80;;;20.00;56.10;;;;;;5029236;28;20439;-49
2023/04/23 02:12:01;;;;;;;5.57;3.00;;;20.10;56.00;;;;;;5025852;28;22048;-50
2023/04/23 02:14:28;;;;;;;2.73;2.50;;;20.10;55.90;;;;;;5027515;28;20528;-51
2023/04/23 02:16:54;;;;;;;3.17;2.53;;;20.10;55.90;;;;;;5024616;28;20212;-47
2023/04/23 02:19:20;;;;;;;3.60;2.30;;;20.10;56.00;;;;;;5040194;28;20534;-46
2023/04/23 02:21:46;;;;;;;2.30;2.10;;;20.10;56.10;;;;;;5024233;28;20547;-52
2023/04/23 02:24:12;;;;;;;2.90;2.50;;;20.10;56.20;;;;;;5022202;28;20200;-47
2023/04/23 02:26:37;;;;;;;3.10;2.47;;;20.00;56.40;;;;;;5024135;28;20797;-50
2023/04/23 02:29:03;;;;;;;2.60;2.40;;;20.00;56.70;;;;;;5022307;28;20197;-45
2023/04/23 02:31:29;;;;;;;3.83;2.43;;;20.00;57.40;;;;;;5015780;28;20204;-51
2023/04/23 02:33:54;;;;;;;3.40;2.57;;;19.90;57.60;;;;;;5028868;28;20223;-47
2023/04/23 02:36:20;;;;;;;2.63;2.43;;;19.90;57.90;;;;;;5025151;28;20221;-49
2023/04/23 02:38:48;;;;;;;3.73;2.30;;;19.90;58.20;;;;;;5017923;28;20569;-53
2023/04/23 02:41:13;;;;;;;2.93;2.33;;;19.80;58.60;;;;;;5021861;28;20193;-51
2023/04/23 02:43:39;;;;;;;3.27;2.23;;;19.80;59.10;;;;;;5015659;28;20818;-50
2023/04/23 02:46:08;;;;;;;6.63;3.10;;;19.70;59.00;;;;;;5034536;28;20327;-50
2023/04/23 02:48:40;;;;;;;3.07;2.77;;;19.70;59.00;;;;;;5024023;28;20225;-52
2023/04/23 02:51:09;;;;;;;4.13;2.50;;;19.70;58.80;;;;;;5025200;28;20529;-51
2023/04/23 02:53:35;;;;;;;2.97;2.70;;;19.60;58.90;;;;;;5031016;28;20451;-51
2023/04/23 02:56:01;;;;;;;3.27;2.63;;;19.60;59.30;;;;;;5029926;28;20448;-52
2023/04/23 02:58:27;;;;;;;2.83;2.60;;;19.60;59.60;;;;;;5031065;28;20557;-51
2023/04/23 03:00:53;;;;;;;3.27;2.97;;;19.60;59.90;;;;;;5030990;28;20472;-50
2023/04/23 03:03:18;;;;;;;4.40;2.50;;;19.50;59.80;;;;;;5022342;28;20527;-51
2023/04/23 03:05:44;;;;;;;4.10;2.70;;;19.50;59.60;;;;;;5031120;28;20197;-53
2023/04/23 03:08:09;;;;;;;5.13;3.53;;;19.40;59.60;;;;;;5030334;28;20685;-49
2023/04/23 03:10:35;;;;;;;2.90;2.60;;;19.40;59.80;;;;;;5014256;28;20194;-52
2023/04/23 03:13:01;;;;;;;2.93;2.63;;;19.40;59.80;;;;;;5028341;28;20189;-50
2023/04/23 03:15:26;;;;;;;3.10;2.80;;;19.30;59.90;;;;;;5031545;28;20216;-52
2023/04/23 03:17:52;;;;;;;3.63;2.97;;;19.30;60.10;;;;;;5029807;28;20204;-52
2023/04/23 03:20:18;;;;;;;2.60;2.40;;;19.30;60.40;;;;;;5022915;28;20285;-52
2023/04/23 03:22:44;;;;;;;2.80;2.50;;;19.30;60.40;;;;;;5029425;28;20449;-52
2023/04/23 03:25:10;;;;;;;3.80;2.80;;;19.30;60.30;;;;;;5023379;28;20474;-49
2023/04/23 03:27:38;;;;;;;2.93;2.63;;;19.30;60.50;;;;;;5025869;28;20923;-51
2023/04/23 03:30:04;;;;;;;4.70;2.90;;;19.30;61.30;;;;;;5025759;28;20510;-51
2023/04/23 03:32:29;;;;;;;5.33;2.80;;;19.20;61.40;;;;;;5024490;28;20446;-51
2023/04/23 03:34:55;;;;;;;2.90;2.70;;;19.20;61.30;;;;;;5013515;28;20982;-45
2023/04/23 03:37:20;;;;;;;3.80;3.00;;;19.20;61.40;;;;;;5022060;28;20193;-49
2023/04/23 03:39:46;;;;;;;2.80;2.57;;;19.20;61.40;;;;;;5026044;28;20190;-51
2023/04/23 03:42:11;;;;;;;2.90;2.60;;;19.20;61.30;;;;;;5030417;28;20574;-47
2023/04/23 03:44:37;;;;;;;3.40;3.10;;;19.20;61.10;;;;;;5023158;28;20561;-45
2023/04/23 03:47:03;;;;;;;3.00;2.70;;;19.20;61.10;;;;;;5022414;28;20308;-50
2023/04/23 03:49:28;;;;;;;3.20;2.90;;;19.10;61.30;;;;;;5019068;28;20200;-46
2023/04/23 03:51:54;;;;;;;3.10;2.83;;;19.10;61.40;;;;;;5023744;28;20203;-46
2023/04/23 03:54:22;;;;;;;2.80;2.60;;;19.10;61.80;;;;;;5025973;28;20198;-45
2023/04/23 03:56:47;;;;;;;2.87;2.63;;;19.10;61.40;;;;;;5023697;28;20213;-48
2023/04/23 03:59:13;;;;;;;2.67;2.47;;;19.00;61.10;;;;;;5025113;28;20442;-46
2023/04/23 04:01:38;;;;;;;3.53;2.83;;;19.00;61.00;;;;;;5017491;28;20240;-45
2023/04/23 04:04:04;;;;;;;2.90;2.43;;;19.00;61.10;;;;;;5028816;28;20196;-46
2023/04/23 04:06:30;;;;;;;3.20;2.90;;;19.00;61.00;;;;;;5021565;28;20237;-45
2023/04/23 04:08:55;;;;;;;3.03;2.60;;;18.70;60.90;;;;;;5023117;28;20629;-45
2023/04/23 04:11:21;;;;;;;2.77;2.57;;;18.60;61.70;;;;;;5019730;28;20724;-47
2023/04/23 04:13:47;;;;;;;2.87;2.40;;;18.60;61.90;;;;;;5023971;28;20204;-48
2023/04/23 04:16:12;;;;;;;2.80;2.60;;;18.60;61.80;;;;;;5025552;28;20247;-47
2023/04/23 04:18:38;;;;;;;3.10;2.90;;;18.60;61.90;;;;;;5021298;28;21152;-48
2023/04/23 04:21:03;;;;;;;4.50;2.50;;;18.70;62.20;;;;;;5020013;28;20201;-48
2023/04/23 04:23:29;;;;;;;3.07;2.57;;;18.80;62.40;;;;;;5022651;28;20200;-45
2023/04/23 04:25:56;;;;;;;2.53;2.33;;;18.70;62.20;;;;;;5020576;28;20201;-45
2023/04/23 04:28:24;;;;;;;2.70;2.50;;;18.70;61.90;;;;;;5020837;28;20487;-47
2023/04/23 04:30:52;;;;;;;3.70;2.20;;;18.60;61.80;;;;;;5018674;28;20647;-51
2023/04/23 04:33:19;;;;;;;3.10;2.23;;;18.50;61.70;;;;;;5019647;28;20922;-48
2023/04/23 04:35:46;;;;;;;3.07;2.30;;;18.30;62.40;;;;;;5021999;28;21251;-47
2023/04/23 04:38:12;;;;;;;2.90;2.63;;;18.40;62.70;;;;;;5023121;28;20443;-48
2023/04/23 04:40:37;;;;;;;4.13;2.40;;;18.40;62.30;;;;;;5025565;28;20459;-48
2023/04/23 04:43:06;;;;;;;4.03;2.43;;;18.40;62.10;;;;;;5027771;28;20243;-47
2023/04/23 04:45:32;;;;;;;2.47;2.27;;;18.40;62.50;;;;;;5026785;28;20191;-46
2023/04/23 04:47:57;;;;;;;2.53;2.33;;;18.50;62.50;;;;;;5028150;28;20491;-47
2023/04/23 04:50:23;;;;;;;2.33;2.13;;;18.60;62.30;;;;;;5033106;28;20189;-47
2023/04/23 04:52:49;;;;;;;2.63;2.10;;;18.60;61.80;;;;;;5034169;28;20189;-46
2023/04/23 04:55:15;;;;;;;2.40;2.20;;;18.70;61.90;;;;;;5032915;28;20210;-46
2023/04/23 04:57:41;;;;;;;4.03;3.67;;;18.70;61.80;;;;;;5031195;28;20213;-47
2023/04/23 05:00:28;;;;;;;2.00;1.90;;;18.70;61.60;;;;;;5029424;28;20455;-48
2023/04/23 05:02:55;;;;;;;2.73;2.50;;;18.80;61.30;;;;;;5032260;28;20197;-46
2023/04/23 05:05:23;;;;;;;2.10;1.90;;;18.70;60.90;;;;;;5025971;28;20447;-45
2023/04/23 05:07:48;;;;;;;2.23;2.00;;;18.60;60.80;;;;;;5031922;28;20503;-45
2023/04/23 05:10:14;;;;;;;5.70;2.20;;;18.60;61.10;;;;;;5032085;28;20431;-45
2023/04/23 05:12:41;;;;;;;2.20;1.97;;;18.70;61.30;;;;;;5031822;28;20280;-48
2023/04/23 05:15:09;;;;;;;1.83;1.70;;;18.70;61.30;;;;;;5032088;28;20614;-47
2023/04/23 05:17:35;;;;;;;2.10;1.40;;;18.70;60.90;;;;;;5030810;28;20851;-47
2023/04/23 05:20:01;;;;;;;3.57;1.90;;;18.70;60.70;;;;;;5031773;28;20597;-47
2023/04/23 05:22:26;;;;;;;2.13;1.70;;;18.70;60.50;;;;;;5027082;28;20548;-45
2023/04/23 05:24:52;;;;;;;1.87;1.77;;;18.80;60.60;;;;;;5027191;28;20189;-46
2023/04/23 05:27:18;;;;;;;1.97;1.83;;;18.80;60.50;;;;;;5023722;28;20711;-50
2023/04/23 05:29:44;;;;;;;4.77;1.97;;;18.90;60.80;;;;;;5015814;28;20208;-49
2023/04/23 05:32:09;;;;;;;2.13;1.90;;;19.00;60.90;;;;;;5021892;28;20439;-46
2023/04/23 05:34:35;;;;;;;4.33;1.70;;;19.00;60.70;;;;;;5026400;28;20225;-47
2023/04/23 05:37:01;;;;;;;3.30;1.60;;;19.20;60.60;;;;;;5030765;28;20200;-47
2023/04/23 05:39:27;;;;;;;2.07;1.87;;;19.20;60.00;;;;;;5023507;28;20212;-47
2023/04/23 05:41:52;;;;;;;2.67;2.47;;;19.30;59.50;;;;;;5028680;28;20439;-50
2023/04/23 05:44:18;;;;;;;2.77;2.07;;;19.40;59.40;;;;;;5025238;28;20205;-46
2023/04/23 05:46:44;;;;;;;3.23;1.93;;;19.40;59.50;;;;;;5022153;28;20277;-49
2023/04/23 05:49:09;;;;;;;2.30;2.20;;;19.40;59.30;;;;;;5026649;28;20193;-50
2023/04/23 05:51:35;;;;;;;1.97;1.70;;;19.40;59.10;;;;;;5027425;28;20197;-49
2023/04/23 05:54:01;;;;;;;1.80;1.57;;;19.40;59.40;;;;;;5021731;28;20676;-47
2023/04/23 05:56:26;;;;;;;2.10;1.77;;;19.50;59.30;;;;;;5025482;28;20216;-47
2023/04/23 05:58:52;;;;;;;4.03;2.57;;;19.50;59.30;;;;;;5030265;28;20220;-49
2023/04/23 06:01:18;;;;;;;2.03;1.93;;;19.60;59.40;;;;;;5032861;28;20221;-48
2023/04/23 06:03:44;;;;;;;2.70;1.53;;;19.50;58.90;;;;;;5023957;28;20448;-48
2023/04/23 06:06:11;;;;;;;2.20;1.63;;;19.50;58.90;;;;;;5031939;28;20193;-48
2023/04/23 06:08:37;;;;;;;2.37;1.57;;;19.60;58.70;;;;;;5020055;28;20836;-50
2023/04/23 06:11:03;;;;;;;3.33;1.37;;;19.60;58.60;;;;;;5032349;28;20455;-47
2023/04/23 06:13:29;;;;;;;1.63;1.40;;;19.70;58.70;;;;;;5026911;28;20436;-48
2023/04/23 06:15:56;;;;;;;1.70;1.60;;;19.80;58.50;;;;;;5027316;28;20787;-50
2023/04/23 06:18:21;;;;;;;1.97;1.60;;;19.70;57.80;;;;;;5020529;28;20439;-48
2023/04/23 06:20:47;;;;;;;2.40;1.70;;;19.80;57.50;;;;;;5030730;28;20443;-47
2023/04/23 06:23:13;;;;;;;1.50;1.40;;;19.80;57.40;;;;;;5032201;28;20201;-46
2023/04/23 06:25:39;;;;;;;3.33;1.50;;;19.90;57.30;;;;;;5024497;28;20855;-48
2023/04/23 06:28:05;;;;;;;1.40;1.30;;;19.90;57.10;;;;;;5028560;28;20545;-51
2023/04/23 06:30:31;;;;;;;1.83;1.30;;;19.90;57.30;;;;;;5024905;28;20262;-49
2023/04/23 06:32:56;;;;;;;1.30;1.20;;;19.90;57.40;;;;;;5027762;28;20204;-48
2023/04/23 06:35:22;;;;;;;1.53;1.43;;;20.00;57.50;;;;;;5026594;28;20237;-48
2023/04/23 06:37:47;;;;;;;1.53;1.43;;;20.20;57.40;;;;;;5029664;28;20251;-51
2023/04/23 06:40:13;;;;;;;2.73;1.43;;;20.30;56.60;;;;;;5027943;28;20205;-50
2023/04/23 06:42:39;;;;;;;1.03;1.03;;;20.30;56.60;;;;;;5030054;28;20197;-52
2023/04/23 06:45:05;;;;;;;2.07;1.40;;;20.30;56.10;;;;;;5024898;28;20439;-51
2023/04/23 06:47:31;;;;;;;2.77;1.13;;;20.20;56.10;;;;;;5030495;28;20236;-52
2023/04/23 06:49:59;;;;;;;1.50;1.40;;;20.30;56.30;;;;;;5028189;28;20946;-51
2023/04/23 06:52:26;;;;;;;1.60;1.50;;;20.30;56.50;;;;;;5016077;28;20212;-51
2023/04/23 06:54:51;;;;;;;1.33;1.23;;;20.20;56.50;;;;;;5025285;28;20455;-49
2023/04/23 06:57:17;;;;;;;1.10;1.00;;;20.10;56.00;;;;;;5031848;28;20456;-50
2023/04/23 06:59:42;;;;;;;2.30;1.30;;;20.00;56.00;;;;;;5029064;28;20193;-50
2023/04/23 07:02:08;;;;;;;2.20;1.10;;;19.80;56.10;;;;;;5030986;28;20193;-54
2023/04/23 07:04:35;;;;;;;1.20;1.10;;;19.70;56.30;;;;;;5022991;28;20201;-50
2023/04/23 07:07:00;;;;;;;2.17;1.27;;;19.80;56.90;;;;;;5025862;28;20233;-51
2023/04/23 07:09:28;;;;;;;1.40;1.30;;;20.00;57.00;;;;;;5021016;28;20443;-55
2023/04/23 07:11:54;;;;;;;1.57;1.40;;;20.10;57.00;;;;;;5026159;28;20193;-49
2023/04/23 07:14:19;;;;;;;1.27;1.10;;;20.20;57.30;;;;;;5017062;28;20455;-49
2023/04/23 07:16:45;;;;;;;1.73;1.43;;;20.40;56.50;;;;;;5016251;28;20228;-54
2023/04/23 07:19:11;;;;;;;1.50;1.30;;;20.50;56.20;;;;;;5031273;28;20594;-53
2023/04/23 07:21:36;;;;;;;0.97;0.90;;;20.60;55.40;;;;;;5030740;28;20193;-53
2023/04/23 07:24:05;;;;;;;1.40;1.30;;;20.50;54.40;;;;;;5031706;28;20208;-54
2023/04/23 07:26:32;;;;;;;1.10;1.10;;;20.50;55.00;;;;;;5032071;28;20216;-50
2023/04/23 07:28:58;;;;;;;1.10;1.00;;;20.70;54.50;;;;;;5031450;28;20459;-55
2023/04/23 07:31:23;;;;;;;1.63;1.10;;;20.70;54.30;;;;;;5026511;28;20447;-51
2023/04/23 07:33:49;;;;;;;2.20;1.80;;;20.90;54.30;;;;;;5031029;28;20196;-49
2023/04/23 07:36:15;;;;;;;1.50;1.40;;;20.90;54.30;;;;;;5031245;28;20212;-54
2023/04/23 07:38:41;;;;;;;3.60;1.03;;;21.00;54.50;;;;;;5031665;28;20185;-51
2023/04/23 07:41:07;;;;;;;0.90;0.90;;;21.00;54.20;;;;;;5029928;28;20219;-49
2023/04/23 07:43:32;;;;;;;1.70;1.60;;;21.10;53.90;;;;;;5029400;28;20440;-50
2023/04/23 07:45:58;;;;;;;1.23;1.13;;;21.20;53.20;;;;;;5024627;28;20186;-55
2023/04/23 07:48:23;;;;;;;1.33;0.90;;;21.40;52.50;;;;;;5029418;28;20241;-52
2023/04/23 07:50:50;;;;;;;1.00;1.00;;;21.40;52.10;;;;;;5024081;28;20194;-54
2023/04/23 07:53:15;;;;;;;1.53;1.20;;;21.30;53.20;;;;;;5011525;28;20198;-49
2023/04/23 07:55:41;;;;;;;1.03;0.93;;;21.30;53.70;;;;;;5018237;28;20439;-52
2023/04/23 07:58:06;;;;;;;1.93;1.27;;;21.50;52.40;;;;;;5030028;28;20605;-52
2023/04/23 08:00:32;;;;;;;1.13;0.90;;;21.70;51.50;;;;;;5030778;28;20200;-54
2023/04/23 08:02:58;;;;;;;1.30;1.10;;;21.70;51.20;;;;;;5031147;28;20200;-53
2023/04/23 08:05:25;;;;;;;1.30;1.07;;;21.90;50.80;;;;;;5030958;28;20252;-50
2023/04/23 08:07:51;;;;;;;3.20;1.17;;;21.90;50.10;;;;;;5029868;28;20852;-54
2023/04/23 08:10:16;;;;;;;1.20;1.10;;;21.80;50.60;;;;;;5029119;28;20436;-51
2023/04/23 08:12:43;;;;;;;1.10;1.00;;;22.00;49.60;;;;;;5029470;28;20593;-50
2023/04/23 08:15:09;;;;;;;1.07;0.87;;;22.10;49.50;;;;;;5030588;28;20197;-50
2023/04/23 08:17:35;;;;;;;1.33;1.23;;;22.30;49.20;;;;;;5029775;28;20436;-51
2023/04/23 08:20:00;;;;;;;1.73;1.40;;;22.50;47.50;;;;;;5028900;28;20523;-51
2023/04/23 08:22:26;;;;;;;2.83;1.10;;;22.80;47.60;;;;;;5030255;28;20644;-52
2023/04/23 08:24:51;;;;;;;1.43;0.90;;;22.80;46.90;;;;;;5029421;28;20302;-54
2023/04/23 08:27:17;;;;;;;0.80;0.80;;;22.40;47.60;;;;;;5030718;28;20225;-53
2023/04/23 08:29:43;;;;;;;2.30;1.10;;;22.30;47.80;;;;;;5030320;28;20193;-54
2023/04/23 08:32:08;;;;;;;1.20;1.10;;;22.20;48.20;;;;;;5030749;28;20636;-54
2023/04/23 08:34:34;;;;;;;1.30;1.17;;;22.50;48.10;;;;;;5028165;28;20708;-51
2023/04/23 08:36:59;;;;;;;1.40;1.30;;;22.60;47.60;;;;;;5029327;28;20197;-51
2023/04/23 08:39:26;;;;;;;1.10;1.10;;;22.70;47.60;;;;;;5028570;28;20228;-51
2023/04/23 08:41:54;;;;;;;1.30;1.20;;;22.90;47.20;;;;;;5030601;28;20200;-51
2023/04/23 08:44:24;;;;;;;1.20;1.10;;;23.00;48.20;;;;;;5030569;28;20439;-55
2023/04/23 08:46:53;;;;;;;1.50;1.40;;;23.10;47.30;;;;;;5019856;28;20539;-54
2023/04/23 08:49:19;;;;;;;1.37;1.10;;;23.20;46.80;;;;;;5030202;28;20438;-51
2023/04/23 08:52:13;;;;;;;1.23;1.13;;;23.20;46.40;;;;;;5016532;28;20425;-52
2023/04/23 08:54:43;;;;;;;1.43;1.13;;;23.30;47.10;;;;;;5010785;28;20796;-51
2023/04/23 08:57:09;;;;;;;1.63;1.30;;;23.30;47.30;;;;;;5013212;28;20456;-50
2023/04/23 08:59:37;;;;;;;1.10;1.10;;;23.30;47.10;;;;;;5030185;28;20454;-55
2023/04/23 09:02:08;;;;;;;1.10;1.10;;;23.40;47.30;;;;;;5011914;28;20197;-50
2023/04/23 09:04:34;;;;;;;1.30;1.20;;;23.40;46.80;;;;;;5009231;28;20891;-52
2023/04/23 09:07:00;;;;;;;1.60;1.37;;;23.40;46.00;;;;;;5010505;28;20473;-48
2023/04/23 09:09:28;;;;;;;2.27;1.10;;;23.40;45.90;;;;;;5017391;28;20441;-50
2023/04/23 09:11:56;;;;;;;1.43;1.20;;;23.40;45.60;;;;;;5030426;28;20466;-49
2023/04/23 09:14:25;;;;;;;1.43;1.33;;;23.40;46.80;;;;;;5030249;28;20849;-53
2023/04/23 09:16:51;;;;;;;1.73;1.20;;;23.40;46.90;;;;;;5028368;28;20444;-52
2023/04/23 09:19:17;;;;;;;1.20;1.10;;;23.30;46.80;;;;;;5029286;28;20440;-52
2023/04/23 09:21:45;;;;;;;1.90;1.40;;;23.30;47.80;;;;;;5030325;28;20435;-52
2023/04/23 09:24:12;;;;;;;1.17;1.07;;;23.40;47.50;;;;;;5030704;28;20919;-50
2023/04/23 09:26:48;;;;;;;1.50;1.40;;;23.60;47.00;;;;;;5032809;28;20491;-52
2023/04/23 09:29:17;;;;;;;1.30;1.20;;;23.80;46.50;;;;;;5033356;28;20524;-51
2023/04/23 09:31:46;;;;;;;1.37;1.27;;;23.80;46.20;;;;;;5032245;28;20489;-49
2023/04/23 09:34:18;;;;;;;1.27;1.17;;;23.80;46.60;;;;;;5033499;28;20476;-51
2023/04/23 09:36:44;;;;;;;1.73;1.20;;;24.00;46.70;;;;;;5032372;28;20431;-49
2023/04/23 09:39:14;;;;;;;1.57;1.47;;;24.10;47.10;;;;;;5033067;28;20458;-53
2023/04/23 09:41:40;;;;;;;1.80;1.30;;;24.30;46.30;;;;;;5031549;28;20476;-53
2023/04/23 09:44:07;;;;;;;1.40;1.30;;;24.30;45.20;;;;;;5027998;28;20955;-51
2023/04/23 09:46:38;;;;;;;2.03;1.43;;;24.40;45.90;;;;;;5025444;28;20436;-53
2023/04/23 09:49:09;;;;;;;1.97;1.40;;;24.50;44.40;;;;;;5033233;28;21069;-53
2023/04/23 09:51:36;;;;;;;1.60;1.20;;;24.60;43.00;;;;;;5020135;28;20456;-52
2023/04/23 09:54:04;;;;;;;1.60;1.30;;;24.60;42.80;;;;;;5029005;28;20447;-53
2023/04/23 09:56:31;;;;;;;1.40;1.30;;;24.80;43.60;;;;;;5033100;28;20443;-56
2023/04/23 09:58:57;;;;;;;2.07;1.13;;;24.80;41.60;;;;;;5031897;28;20420;-52
2023/04/23 10:01:28;;;;;;;1.40;1.30;;;24.90;41.50;;;;;;5032815;28;20772;-53
2023/04/23 10:03:55;;;;;;;1.50;1.30;;;24.60;42.20;;;;;;5032423;28;20189;-54
2023/04/23 10:06:28;;;;;;;1.90;1.27;;;24.40;41.90;;;;;;5021678;28;20476;-50
2023/04/23 10:08:55;;;;;;;1.60;1.17;;;24.40;42.60;;;;;;5032819;28;21045;-53
2023/04/23 10:11:23;;;;;;;1.37;1.10;;;24.60;41.60;;;;;;5032453;28;20431;-52
2023/04/23 10:13:51;;;;;;;1.27;1.17;;;24.80;42.30;;;;;;5031645;28;20460;-52
2023/04/23 10:16:19;;;;;;;2.50;1.20;;;24.70;40.50;;;;;;5031370;28;20816;-50
2023/04/23 10:18:45;;;;;;;1.80;1.07;;;24.60;40.40;;;;;;5032810;28;20511;-52
2023/04/23 10:21:13;;;;;;;0.90;0.90;;;24.40;40.00;;;;;;5017427;28;20503;-53
2023/04/23 10:23:43;;;;;;;1.40;1.10;;;24.40;41.00;;;;;;5013346;28;20460;-54
2023/04/23 10:26:10;;;;;;;0.90;0.90;;;24.40;41.30;;;;;;5011208;28;20481;-51
2023/04/23 10:28:38;;;;;;;1.27;1.00;;;24.30;42.00;;;;;;5029607;28;20862;-53
2023/04/23 10:31:05;;;;;;;2.43;1.40;;;24.30;41.50;;;;;;5015709;28;20444;-50
2023/04/23 10:33:32;;;;;;;1.80;1.10;;;24.30;41.20;;;;;;5012653;28;20524;-49
2023/04/23 10:35:58;;;;;;;1.10;1.10;;;24.50;41.00;;;;;;5015886;28;20544;-52
2023/04/23 10:38:27;;;;;;;2.60;1.10;;;24.80;40.10;;;;;;5022431;28;20447;-48
2023/04/23 10:40:55;;;;;;;1.20;1.10;;;24.90;39.20;;;;;;5029136;28;20444;-47
2023/04/23 10:43:21;;;;;;;1.20;0.80;;;25.00;39.90;;;;;;5029640;28;20440;-49
2023/04/23 10:45:48;;;;;;;1.20;1.17;;;25.00;39.90;;;;;;5030727;28;20490;-49
2023/04/23 10:48:15;;;;;;;0.80;0.80;;;25.10;39.30;;;;;;5032058;28;20550;-49
2023/04/23 10:50:43;;;;;;;1.67;0.90;;;24.70;38.90;;;;;;5026420;28;20546;-49
2023/04/23 10:53:20;;;;;;;1.10;1.00;;;24.80;39.40;;;;;;5010882;28;20483;-49
2023/04/23 10:55:46;;;;;;;2.70;1.30;;;24.90;38.60;;;;;;5023446;28;20955;-50
2023/04/23 10:58:12;;;;;;;1.10;1.00;;;24.80;38.50;;;;;;5027400;28;20443;-47
2023/04/23 11:00:40;;;;;;;0.93;0.93;;;24.60;39.30;;;;;;5031553;28;20436;-50
2023/04/23 11:03:40;;;;;;;1.60;1.23;;;24.90;39.00;;;;;;5031777;28;20197;-48
2023/04/23 11:06:07;;;;;;;0.80;0.70;;;25.20;38.70;;;;;;5032141;28;20956;-53
2023/04/23 11:08:35;;;;;;;3.67;1.13;;;25.20;36.70;;;;;;5028076;28;20487;-49
2023/04/23 11:11:06;;;;;;;0.83;0.83;;;24.90;37.30;;;;;;5019958;28;20467;-48
2023/04/23 11:13:32;;;;;;;2.67;1.00;;;25.20;37.30;;;;;;5021603;28;20441;-49
2023/04/23 11:16:20;;;;;;;0.80;0.80;;;25.40;37.10;;;;;;5011966;28;20478;-49
2023/04/23 11:19:03;;;;;;;1.07;1.00;;;25.80;36.10;;;;;;5021764;28;20201;-49
2023/04/23 11:21:57;;;;;;;1.40;1.30;;;25.90;35.50;;;;;;5030274;28;20444;-49
2023/04/23 11:24:30;;;;;;;1.53;0.97;;;26.10;35.50;;;;;;5030573;28;21148;-49
2023/04/23 11:26:56;;;;;;;2.00;0.93;;;26.10;34.30;;;;;;5021562;28;20868;-49
2023/04/23 11:29:23;;;;;;;1.50;1.13;;;26.30;34.70;;;;;;5011147;28;20432;-49
2023/04/23 11:31:49;;;;;;;1.00;1.00;;;25.70;34.30;;;;;;5011628;28;20425;-47
2023/04/23 11:34:19;;;;;;;2.60;1.00;;;25.80;35.30;;;;;;5030422;28;20479;-48
2023/04/23 11:36:51;;;;;;;1.00;0.90;;;26.10;34.80;;;;;;5031486;28;20444;-50
2023/04/23 11:39:18;;;;;;;1.73;1.30;;;26.10;34.90;;;;;;5030813;28;20516;-48
2023/04/23 11:41:45;;;;;;;1.30;1.20;;;26.20;35.40;;;;;;5031108;28;20486;-52
2023/04/23 11:44:11;;;;;;;3.73;0.80;;;26.10;35.00;;;;;;5030001;28;20450;-48
2023/04/23 11:46:37;;;;;;;1.77;1.67;;;26.20;34.90;;;;;;5017529;28;20456;-48
2023/04/23 11:49:03;;;;;;;1.20;1.10;;;26.10;35.10;;;;;;5010691;28;21313;-49
2023/04/23 11:51:28;;;;;;;0.87;0.87;;;25.90;34.80;;;;;;5013571;28;20593;-48
2023/04/23 11:54:00;;;;;;;2.43;1.30;;;25.80;35.00;;;;;;5018089;28;20193;-49
2023/04/23 11:56:32;;;;;;;0.70;0.70;;;25.70;35.50;;;;;;5029953;28;20189;-48
2023/04/23 11:59:04;;;;;;;1.20;1.10;;;25.60;36.00;;;;;;5030436;28;20927;-49
2023/04/23 12:01:39;;;;;;;1.47;1.13;;;25.70;35.50;;;;;;5030103;28;20423;-50
2023/04/23 12:04:13;;;;;;;0.83;0.83;;;25.60;35.40;;;;;;5030857;28;20538;-47
2023/04/23 12:06:43;;;;;;;1.07;1.00;;;25.30;36.20;;;;;;5030918;28;20424;-49
2023/04/23 12:09:10;;;;;;;3.20;1.33;;;25.60;36.00;;;;;;5030609;28;20452;-47
2023/04/23 12:11:36;;;;;;;0.80;0.80;;;25.90;36.10;;;;;;5030583;28;20950;-49
2023/04/23 12:14:02;;;;;;;2.10;1.10;;;26.20;35.30;;;;;;5027225;28;20440;-48
2023/04/23 12:16:41;;;;;;;1.30;0.90;;;26.50;34.70;;;;;;5027618;28;20251;-50
2023/04/23 12:19:15;;;;;;;1.40;0.90;;;26.80;34.70;;;;;;5030085;28;20189;-48
2023/04/23 12:21:53;;;;;;;1.00;1.00;;;26.80;33.70;;;;;;5030849;28;20417;-53
2023/04/23 12:24:19;;;;;;;1.50;1.40;;;26.40;34.40;;;;;;5030519;28;20529;-49
2023/04/23 12:26:48;;;;;;;1.00;0.97;;;26.20;34.80;;;;;;5029719;28;20481;-51
2023/04/23 12:29:17;;;;;;;1.40;1.10;;;26.00;33.80;;;;;;5029734;28;20200;-49
2023/04/23 12:31:43;;;;;;;1.30;0.97;;;26.00;34.60;;;;;;5030609;28;20432;-50
2023/04/23 12:37:03;;;;;;;1.10;1.00;;;25.70;35.50;;;;;;4943064;23;20507;-53
2023/04/23 12:39:33;;;;;;;1.73;1.53;;;26.00;35.40;;;;;;4947504;28;20459;-49
2023/04/23 12:42:06;;;;;;;1.80;1.03;;;26.10;35.30;;;;;;4951130;28;20455;-52
2023/04/23 12:44:36;;;;;;;3.50;1.33;;;26.20;34.50;;;;;;4948751;29;20848;-53
2023/04/23 12:47:04;;;;;;;1.20;0.83;;;26.50;35.00;;;;;;4949057;28;20895;-54
2023/04/23 12:49:30;;;;;;;1.13;1.03;;;26.70;35.90;;;;;;4951558;28;20532;-55